createdAt,value
2022-09-20T00:01:40.423Z,101172.88
2022-09-20T00:04:10.485Z,101174.53
2022-09-20T00:06:38.726Z,101170.72
2022-09-20T00:09:07.817Z,101179.06
2022-09-20T00:11:41.838Z,101178.75
2022-09-20T00:14:10.014Z,101181.38
2022-09-20T00:16:41.416Z,101171.34
2022-09-20T00:19:20.332Z,101181.16
2022-09-20T00:21:48.565Z,101178.19
2022-09-20T00:24:17.357Z,101176.94
2022-09-20T00:26:45.584Z,101181.91
2022-09-20T00:29:13.987Z,101180.34
2022-09-20T00:31:43.098Z,101189.78
2022-09-20T00:34:30.467Z,101184.19
2022-09-20T00:36:58.779Z,101181.34
2022-09-20T00:39:27.122Z,101185.03
2022-09-20T00:41:55.570Z,101181.63
2022-09-20T00:44:46.008Z,101191.31
2022-09-20T00:47:25.002Z,101193.38
2022-09-20T00:50:02.439Z,101195.47
2022-09-20T00:52:32.604Z,101190.25
2022-09-20T00:55:07.344Z,101196.16
2022-09-20T00:57:38.762Z,101189.50
2022-09-20T01:00:10.622Z,101193.69
2022-09-20T01:02:46.805Z,101191.41
2022-09-20T01:05:18.833Z,101186.34
2022-09-20T01:07:50.778Z,101195.81
2022-09-20T01:10:18.965Z,101182.81
2022-09-20T01:12:51.876Z,101189.50
2022-09-20T01:15:23.431Z,101197.56
2022-09-20T01:17:55.651Z,101196.56
2022-09-20T01:20:26.651Z,101195.66
2022-09-20T01:23:45.682Z,101195.59
2022-09-20T01:26:32.731Z,101193.31
2022-09-20T01:29:41.702Z,101198.28
2022-09-20T01:32:19.706Z,101192.56
2022-09-20T01:34:59.271Z,101203.06
2022-09-20T01:37:43.328Z,101191.91
2022-09-20T01:40:43.233Z,101195.81
2022-09-20T01:43:34.370Z,101201.28
2022-09-20T01:46:28.348Z,101198.56
2022-09-20T01:49:24.521Z,101199.06
2022-09-20T01:52:30.089Z,101201.69
2022-09-20T01:55:47.374Z,101198.75
2022-09-20T01:58:30.454Z,101204.63
2022-09-20T02:01:42.941Z,101213.25
2022-09-20T02:04:37.848Z,101208.34
2022-09-20T02:08:01.770Z,101213.13
2022-09-20T02:11:25.602Z,101199.91
2022-09-20T02:14:02.638Z,101213.25
2022-09-20T02:17:01.819Z,101206.38
2022-09-20T02:19:50.024Z,101208.72
2022-09-20T02:22:44.794Z,101220.66
2022-09-20T02:25:37.173Z,101219.94
2022-09-20T02:28:10.985Z,101217.34
2022-09-20T02:30:51.160Z,101215.78
2022-09-20T02:33:43.522Z,101220.59
2022-09-20T02:36:33.310Z,101224.66
2022-09-20T02:39:27.892Z,101222.03
2022-09-20T02:42:06.168Z,101225.88
2022-09-20T02:45:11.841Z,101221.97
2022-09-20T02:47:43.992Z,101230.13
2022-09-20T02:50:39.904Z,101230.72
2022-09-20T02:53:37.940Z,101225.59
2022-09-20T02:56:54.222Z,101229.41
2022-09-20T02:59:46.974Z,101232.44
2022-09-20T03:02:52.747Z,101227.59
2022-09-20T03:05:52.014Z,101232.72
2022-09-20T03:08:47.781Z,101236.72
2022-09-20T03:11:51.498Z,101235.25
2022-09-20T03:14:32.518Z,101241.50
2022-09-20T03:17:48.727Z,101234.34
2022-09-20T03:20:57.437Z,101240.94
2022-09-20T03:24:06.151Z,101244.81
2022-09-20T03:26:52.507Z,101240.75
2022-09-20T03:29:48.450Z,101247.53
2022-09-20T03:32:37.460Z,101249.25
2022-09-20T03:35:43.627Z,101252.56
2022-09-20T03:38:15.743Z,101256.78
2022-09-20T03:41:24.334Z,101250.44
2022-09-20T03:43:58.413Z,101256.28
2022-09-20T03:46:47.220Z,101252.25
2022-09-20T03:49:52.934Z,101258.91
2022-09-20T03:53:14.768Z,101254.00
2022-09-20T03:56:20.722Z,101250.66
2022-09-20T03:59:13.768Z,101256.59
2022-09-20T04:02:20.276Z,101249.47
2022-09-20T04:05:00.974Z,101257.28
2022-09-20T04:08:04.435Z,101256.38
2022-09-20T04:11:00.393Z,101264.53
2022-09-20T04:13:56.728Z,101264.63
2022-09-20T04:16:46.349Z,101264.22
2022-09-20T04:19:42.158Z,101265.97
2022-09-20T04:22:10.530Z,101262.03
2022-09-20T04:25:04.071Z,101273.81
2022-09-20T04:27:46.100Z,101271.09
2022-09-20T04:30:30.318Z,101270.34
2022-09-20T04:33:25.101Z,101269.78
2022-09-20T04:36:24.948Z,101267.66
2022-09-20T04:39:25.797Z,101277.22
2022-09-20T04:42:54.918Z,101273.41
2022-09-20T04:46:03.542Z,101279.16
2022-09-20T04:49:10.904Z,101264.66
2022-09-20T04:52:34.457Z,101275.81
2022-09-20T04:55:45.145Z,101275.53
2022-09-20T04:58:37.998Z,101277.31
2022-09-20T05:01:16.955Z,101284.59
2022-09-20T05:04:31.968Z,101283.84
2022-09-20T05:07:47.209Z,101286.00
2022-09-20T05:10:41.158Z,101283.81
2022-09-20T05:13:46.062Z,101304.44
2022-09-20T05:16:40.699Z,101303.03
2022-09-20T05:19:48.414Z,101299.22
2022-09-20T05:22:45.769Z,101311.41
2022-09-20T05:25:47.500Z,101308.91
2022-09-20T05:28:49.734Z,101311.72
2022-09-20T05:31:56.346Z,101318.75
2022-09-20T05:34:40.325Z,101321.06
2022-09-20T05:37:36.836Z,101322.78
2022-09-20T05:41:01.339Z,101324.69
2022-09-20T05:44:02.538Z,101332.91
2022-09-20T05:46:54.640Z,101331.66
2022-09-20T05:50:39.455Z,101341.59
2022-09-20T05:53:41.251Z,101346.47
2022-09-20T05:57:01.252Z,101341.28
2022-09-20T06:00:09.290Z,101353.41
2022-09-20T06:03:23.178Z,101346.47
2022-09-20T06:06:23.229Z,101351.09
2022-09-20T06:09:22.408Z,101349.94
2022-09-20T06:12:08.822Z,101355.47
2022-09-20T06:15:12.163Z,101356.97
2022-09-20T06:18:13.846Z,101362.81
2022-09-20T06:20:59.079Z,101360.38
2022-09-20T06:23:28.043Z,101368.34
2022-09-20T06:26:10.909Z,101368.25
2022-09-20T06:28:46.554Z,101370.09
2022-09-20T06:31:17.080Z,101366.69
2022-09-20T06:33:58.820Z,101369.97
2022-09-20T06:36:51.953Z,101364.66
2022-09-20T06:40:10.067Z,101365.81
2022-09-20T06:42:38.558Z,101368.19
2022-09-20T06:45:07.057Z,101370.63
2022-09-20T06:47:38.617Z,101375.81
2022-09-20T06:50:13.503Z,101373.56
2022-09-20T06:52:43.058Z,101372.63
2022-09-20T06:55:29.321Z,101365.69
2022-09-20T06:57:58.118Z,101376.88
2022-09-20T07:00:26.236Z,101371.81
2022-09-20T07:02:56.777Z,101372.59
2022-09-20T07:05:26.642Z,101375.31
2022-09-20T07:07:59.116Z,101376.41
2022-09-20T07:10:28.218Z,101377.94
2022-09-20T07:13:02.218Z,101386.34
2022-09-20T07:15:35.025Z,101390.28
2022-09-20T07:18:03.205Z,101395.00
2022-09-20T07:20:31.347Z,101393.47
2022-09-20T07:22:59.544Z,101399.69
2022-09-20T07:25:27.781Z,101397.97
2022-09-20T07:27:56.370Z,101396.72
2022-09-20T07:30:25.086Z,101398.66
2022-09-20T07:32:54.737Z,101396.88
2022-09-20T07:35:23.272Z,101401.19
2022-09-20T07:37:58.159Z,101399.31
2022-09-20T07:40:26.974Z,101405.25
2022-09-20T07:42:57.834Z,101406.56
2022-09-20T07:45:26.219Z,101409.94
2022-09-20T07:47:54.677Z,101413.03
2022-09-20T07:50:22.904Z,101417.88
2022-09-20T07:52:51.138Z,101424.22
2022-09-20T07:55:19.317Z,101419.88
2022-09-20T07:57:47.455Z,101421.78
2022-09-20T08:00:16.066Z,101429.09
2022-09-20T08:02:45.562Z,101430.81
2022-09-20T08:05:13.706Z,101439.13
2022-09-20T08:07:41.869Z,101435.09
2022-09-20T08:10:10.273Z,101437.69
2022-09-20T08:15:26.597Z,101433.59
2022-09-20T08:17:54.794Z,101431.53
2022-09-20T08:20:22.950Z,101433.63
2022-09-20T08:23:12.724Z,101437.66
2022-09-20T08:25:39.507Z,101435.25
2022-09-20T08:28:07.650Z,101436.03
2022-09-20T08:30:35.847Z,101443.13
2022-09-20T08:33:04.899Z,101446.50
2022-09-20T08:35:38.241Z,101452.13
2022-09-20T08:41:04.568Z,101457.09
2022-09-20T08:43:45.607Z,101452.81
2022-09-20T08:46:26.039Z,101461.13
2022-09-20T08:48:57.673Z,101456.81
2022-09-20T08:51:34.562Z,101456.66
2022-09-20T08:54:04.542Z,101453.34
2022-09-20T08:56:37.284Z,101463.97
2022-09-20T08:59:14.025Z,101463.84
2022-09-20T09:01:42.322Z,101459.06
2022-09-20T09:04:24.185Z,101462.78
2022-09-20T09:06:52.816Z,101452.63
2022-09-20T09:09:27.890Z,101452.19
2022-09-20T09:11:58.844Z,101458.84
2022-09-20T09:14:55.047Z,101459.38
2022-09-20T09:17:30.135Z,101463.84
2022-09-20T09:20:22.526Z,101460.56
2022-09-20T09:23:09.063Z,101464.91
2022-09-20T09:25:40.026Z,101464.72
2022-09-20T09:28:08.021Z,101464.66
2022-09-20T09:30:46.940Z,101462.41
2022-09-20T09:33:31.868Z,101469.75
2022-09-20T09:36:09.045Z,101467.69
2022-09-20T09:38:41.526Z,101466.81
2022-09-20T09:41:24.442Z,101462.78
2022-09-20T09:44:20.563Z,101460.91
2022-09-20T09:46:50.473Z,101470.66
2022-09-20T09:49:20.068Z,101466.88
2022-09-20T09:52:13.841Z,101474.63
2022-09-20T09:55:03.489Z,101471.41
2022-09-20T09:58:04.139Z,101462.50
2022-09-20T10:00:35.821Z,101466.50
2022-09-20T10:03:34.368Z,101466.47
2022-09-20T10:06:24.323Z,101460.19
2022-09-20T10:09:42.790Z,101459.78
2022-09-20T10:12:32.945Z,101457.44
2022-09-20T10:15:26.813Z,101457.56
2022-09-20T10:18:31.561Z,101455.44
2022-09-20T10:21:30.395Z,101454.22
2022-09-20T10:24:17.739Z,101454.16
2022-09-20T10:27:07.220Z,101454.66
2022-09-20T10:30:10.927Z,101451.94
2022-09-20T10:33:18.479Z,101454.63
2022-09-20T10:36:12.932Z,101448.91
2022-09-20T10:39:25.264Z,101449.72
2022-09-20T10:42:27.711Z,101455.78
2022-09-20T10:45:29.013Z,101459.97
2022-09-20T10:48:31.026Z,101458.06
2022-09-20T10:51:25.227Z,101467.22
2022-09-20T10:54:20.199Z,101471.94
2022-09-20T10:56:56.274Z,101481.38
2022-09-20T11:00:02.931Z,101491.38
2022-09-20T11:02:53.425Z,101483.88
2022-09-20T11:05:41.002Z,101486.75
2022-09-20T11:08:25.484Z,101481.44
2022-09-20T11:11:02.929Z,101480.53
2022-09-20T11:13:59.814Z,101493.25
2022-09-20T11:16:48.079Z,101495.84
2022-09-20T11:19:41.106Z,101486.22
2022-09-20T11:22:29.173Z,101495.88
2022-09-20T11:25:08.361Z,101497.66
2022-09-20T11:28:16.303Z,101510.38
2022-09-20T11:31:04.087Z,101531.25
2022-09-20T11:33:44.370Z,101548.06
2022-09-20T11:36:39.532Z,101558.97
2022-09-20T11:39:29.763Z,101585.66
2022-09-20T11:42:01.784Z,101565.78
2022-09-20T11:44:31.050Z,101569.59
2022-09-20T11:47:36.604Z,101565.69
2022-09-20T11:50:47.532Z,101549.59
2022-09-20T11:53:40.577Z,101549.38
2022-09-20T11:56:20.425Z,101549.53
2022-09-20T11:58:55.969Z,101548.47
2022-09-20T12:01:39.686Z,101546.00
2022-09-20T12:04:34.652Z,101558.00
2022-09-20T12:07:25.933Z,101549.34
2022-09-20T12:10:21.859Z,101552.56
2022-09-20T12:13:01.128Z,101546.22
2022-09-20T12:15:39.105Z,101541.72
2022-09-20T12:18:34.562Z,101541.41
2022-09-20T12:21:15.598Z,101541.78
2022-09-20T12:23:46.847Z,101544.97
2022-09-20T12:26:21.094Z,101545.44
2022-09-20T12:28:55.812Z,101549.78
2022-09-20T12:31:29.807Z,101543.91
2022-09-20T12:34:27.224Z,101543.38
2022-09-20T12:36:58.993Z,101541.34
2022-09-20T12:39:38.486Z,101542.78
2022-09-20T12:42:12.553Z,101535.88
2022-09-20T12:44:59.023Z,101539.66
2022-09-20T12:47:33.491Z,101537.53
2022-09-20T12:50:33.704Z,101540.50
2022-09-20T12:53:04.611Z,101537.88
2022-09-20T12:56:03.497Z,101539.19
2022-09-20T12:58:45.328Z,101534.03
2022-09-20T13:01:14.572Z,101538.00
2022-09-20T13:04:18.661Z,101536.88
2022-09-20T13:07:08.412Z,101529.47
2022-09-20T13:09:36.858Z,101540.47
2022-09-20T13:12:05.844Z,101538.25
2022-09-20T13:14:34.904Z,101538.53
2022-09-20T13:17:09.730Z,101538.09
2022-09-20T13:22:48.468Z,101550.50
2022-09-20T13:25:22.003Z,101571.22
2022-09-20T13:28:06.808Z,101562.16
2022-09-20T13:30:35.494Z,101563.09
2022-09-20T13:33:24.253Z,101569.66
2022-09-20T13:35:58.768Z,101576.22
2022-09-20T13:38:31.930Z,101572.44
2022-09-20T13:41:09.496Z,101575.28
2022-09-20T13:43:38.102Z,101576.41
2022-09-20T13:46:14.494Z,101571.69
2022-09-20T13:48:47.333Z,101587.19
2022-09-20T13:51:24.098Z,101577.09
2022-09-20T13:53:53.104Z,101581.56
2022-09-20T13:56:29.986Z,101577.19
2022-09-20T13:59:05.266Z,101586.91
2022-09-20T14:01:36.142Z,101583.81
2022-09-20T14:04:16.904Z,101581.97
2022-09-20T14:06:46.043Z,101587.19
2022-09-20T14:09:41.171Z,101582.75
2022-09-20T14:12:12.667Z,101580.00
2022-09-20T14:14:42.191Z,101588.13
2022-09-20T14:17:19.290Z,101592.78
2022-09-20T14:19:51.615Z,101592.38
2022-09-20T14:22:27.158Z,101598.47
2022-09-20T14:25:20.952Z,101597.31
2022-09-20T14:27:49.139Z,101603.00
2022-09-20T14:30:36.298Z,101598.13
2022-09-20T14:33:15.343Z,101601.31
2022-09-20T14:35:52.321Z,101608.31
2022-09-20T14:38:26.517Z,101606.81
2022-09-20T14:40:54.885Z,101605.13
2022-09-20T14:43:35.919Z,101607.84
2022-09-20T14:49:33.825Z,101603.28
2022-09-20T14:52:23.551Z,101598.03
2022-09-20T14:55:13.783Z,101597.47
2022-09-20T14:57:42.823Z,101602.91
2022-09-20T15:00:15.281Z,101594.72
2022-09-20T15:02:46.497Z,101601.97
2022-09-20T15:05:26.076Z,101600.84
2022-09-20T15:07:57.350Z,101605.59
2022-09-20T15:10:25.668Z,101603.34
2022-09-20T15:12:53.852Z,101610.81
2022-09-20T15:15:22.036Z,101611.00
2022-09-20T15:17:50.438Z,101606.53
2022-09-20T15:20:24.346Z,101618.38
2022-09-20T15:22:52.877Z,101616.84
2022-09-20T15:25:22.154Z,101614.47
2022-09-20T15:27:53.531Z,101626.28
2022-09-20T15:30:22.480Z,101619.38
2022-09-20T15:32:52.441Z,101629.66
2022-09-20T15:35:20.565Z,101627.84
2022-09-20T15:37:49.005Z,101631.56
2022-09-20T15:40:17.487Z,101624.75
2022-09-20T15:42:46.418Z,101627.63
2022-09-20T15:45:14.869Z,101634.75
2022-09-20T15:47:43.024Z,101642.97
2022-09-20T15:50:11.166Z,101643.25
2022-09-20T15:52:41.196Z,101649.25
2022-09-20T15:55:10.024Z,101642.41
2022-09-20T15:57:41.929Z,101644.34
2022-09-20T16:00:10.912Z,101648.25
2022-09-20T16:02:39.200Z,101648.13
2022-09-20T16:05:10.071Z,101647.63
2022-09-20T16:07:38.376Z,101639.41
2022-09-20T16:10:07.354Z,101636.66
2022-09-20T16:12:35.600Z,101648.09
2022-09-20T16:15:03.965Z,101645.84
2022-09-20T16:17:50.676Z,101647.03
2022-09-20T16:20:19.285Z,101641.69
2022-09-20T16:22:47.770Z,101651.81
2022-09-20T16:25:15.869Z,101646.63
2022-09-20T16:27:43.859Z,101653.69
2022-09-20T16:30:12.451Z,101660.28
2022-09-20T16:32:40.808Z,101662.50
2022-09-20T16:35:09.137Z,101660.16
2022-09-20T16:37:39.334Z,101661.84
2022-09-20T16:40:10.734Z,101673.78
2022-09-20T16:42:39.047Z,101672.03
2022-09-20T16:45:07.566Z,101663.81
2022-09-20T16:47:41.272Z,101666.59
2022-09-20T16:50:09.985Z,101663.97
2022-09-20T16:52:39.094Z,101671.63
2022-09-20T16:55:08.554Z,101671.63
2022-09-20T16:57:38.370Z,101673.41
2022-09-20T17:00:07.444Z,101676.59
2022-09-20T17:02:36.167Z,101680.50
2022-09-20T17:05:04.777Z,101679.38
2022-09-20T17:07:33.698Z,101692.09
2022-09-20T17:10:01.967Z,101679.53
2022-09-20T17:12:33.433Z,101683.69
2022-09-20T17:15:02.154Z,101694.75
2022-09-20T17:17:30.476Z,101694.00
2022-09-20T17:19:58.729Z,101695.28
2022-09-20T17:22:27.712Z,101692.69
2022-09-20T17:24:56.139Z,101691.03
2022-09-20T17:27:24.516Z,101706.63
2022-09-20T17:29:53.588Z,101712.28
2022-09-20T17:32:21.777Z,101714.25
2022-09-20T17:34:50.059Z,101715.94
2022-09-20T17:37:18.363Z,101709.78
2022-09-20T17:39:46.488Z,101717.84
2022-09-20T17:42:14.626Z,101722.34
2022-09-20T17:44:42.782Z,101732.50
2022-09-20T17:47:10.939Z,101727.38
2022-09-20T17:49:40.720Z,101732.75
2022-09-20T17:52:10.013Z,101735.81
2022-09-20T17:54:38.166Z,101735.72
2022-09-20T17:57:06.312Z,101739.94
2022-09-20T17:59:34.511Z,101749.44
2022-09-20T18:02:02.706Z,101749.88
2022-09-20T18:04:30.828Z,101750.75
2022-09-20T18:06:58.985Z,101748.22
2022-09-20T18:09:27.754Z,101752.91
2022-09-20T18:11:56.596Z,101751.38
2022-09-20T18:14:27.703Z,101749.91
2022-09-20T18:17:00.998Z,101753.78
2022-09-20T18:19:33.879Z,101752.91
2022-09-20T18:22:03.540Z,101757.88
2022-09-20T18:24:32.153Z,101758.50
2022-09-20T18:27:04.501Z,101758.09
2022-09-20T18:29:36.898Z,101763.41
2022-09-20T18:32:05.477Z,101769.94
2022-09-20T18:34:34.166Z,101770.22
2022-09-20T18:37:03.861Z,101778.00
2022-09-20T18:39:34.833Z,101769.09
2022-09-20T18:42:04.096Z,101780.56
2022-09-20T18:44:34.060Z,101777.63
2022-09-20T18:47:04.038Z,101775.59
2022-09-20T18:49:33.408Z,101773.97
2022-09-20T18:52:02.889Z,101783.41
2022-09-20T18:54:32.207Z,101783.09
2022-09-20T18:57:01.084Z,101787.03
2022-09-20T18:59:29.569Z,101782.94
2022-09-20T19:02:34.808Z,101788.44
2022-09-20T19:05:17.692Z,101785.41
2022-09-20T19:07:54.510Z,101789.25
2022-09-20T19:10:43.822Z,101790.88
2022-09-20T19:13:34.471Z,101786.50
2022-09-20T19:16:27.849Z,101788.22
2022-09-20T19:19:14.986Z,101791.31
2022-09-20T19:22:14.503Z,101795.75
2022-09-20T19:24:42.567Z,101797.47
2022-09-20T19:27:13.457Z,101806.75
2022-09-20T19:29:42.289Z,101798.47
2022-09-20T19:32:18.781Z,101802.00
2022-09-20T19:34:52.218Z,101812.13
2022-09-20T19:37:51.340Z,101812.63
2022-09-20T19:40:35.692Z,101810.00
2022-09-20T19:43:53.090Z,101817.78
2022-09-20T19:46:42.616Z,101821.72
2022-09-20T19:49:20.790Z,101827.56
2022-09-20T19:51:49.539Z,101828.38
2022-09-20T19:54:18.822Z,101834.13
2022-09-20T19:56:58.795Z,101827.34
2022-09-20T19:59:28.547Z,101827.50
2022-09-20T20:01:57.678Z,101834.53
2022-09-20T20:04:26.380Z,101833.59
2022-09-20T20:07:34.041Z,101832.91
2022-09-20T20:10:34.726Z,101837.34
2022-09-20T20:13:40.941Z,101844.25
2022-09-20T20:16:20.816Z,101852.41
2022-09-20T20:19:30.205Z,101849.25
2022-09-20T20:22:22.529Z,101852.41
2022-09-20T20:24:53.347Z,101853.81
2022-09-20T20:27:21.513Z,101852.06
2022-09-20T20:29:49.746Z,101857.78
2022-09-20T20:32:18.443Z,101861.72
2022-09-20T20:34:46.952Z,101862.94
2022-09-20T20:37:16.160Z,101858.47
2022-09-20T20:39:44.326Z,101871.72
2022-09-20T20:42:12.908Z,101865.69
2022-09-20T20:44:42.175Z,101873.78
2022-09-20T20:47:11.268Z,101867.75
2022-09-20T20:49:39.467Z,101882.19
2022-09-20T20:52:08.980Z,101873.78
2022-09-20T20:54:37.540Z,101872.44
2022-09-20T20:57:05.689Z,101890.16
2022-09-20T20:59:33.840Z,101873.78
2022-09-20T21:02:07.110Z,101879.09
2022-09-20T21:04:37.094Z,101882.66
2022-09-20T21:07:05.630Z,101882.88
2022-09-20T21:09:33.798Z,101886.56
2022-09-20T21:12:03.133Z,101881.28
2022-09-20T21:14:33.868Z,101880.91
2022-09-20T21:17:02.528Z,101883.06
2022-09-20T21:19:30.679Z,101885.75
2022-09-20T21:21:58.827Z,101887.97
2022-09-20T21:24:27.001Z,101883.53
2022-09-20T21:26:55.220Z,101885.19
2022-09-20T21:29:23.439Z,101889.59
2022-09-20T21:31:51.688Z,101883.19
2022-09-20T21:34:19.822Z,101886.38
2022-09-20T21:36:48.292Z,101890.31
2022-09-20T21:39:16.446Z,101906.13
2022-09-20T21:41:46.788Z,101902.16
2022-09-20T21:44:15.004Z,101910.00
2022-09-20T21:46:43.191Z,101900.50
2022-09-20T21:49:13.128Z,101910.13
2022-09-20T21:51:43.115Z,101921.91
2022-09-20T21:54:11.643Z,101922.72
2022-09-20T21:56:41.310Z,101927.47
2022-09-20T21:59:09.932Z,101927.06
2022-09-20T22:01:40.419Z,101926.19
2022-09-20T22:04:12.178Z,101933.25
2022-09-20T22:06:43.705Z,101928.28
2022-09-20T22:09:18.059Z,101923.53
2022-09-20T22:11:48.751Z,101928.47
2022-09-20T22:14:19.768Z,101928.16
2022-09-20T22:16:51.327Z,101929.03
2022-09-20T22:19:19.707Z,101931.41
2022-09-20T22:21:51.036Z,101933.94
2022-09-20T22:24:19.367Z,101932.09
2022-09-20T22:26:50.964Z,101932.78
2022-09-20T22:29:19.670Z,101923.91
2022-09-20T22:31:50.169Z,101934.78
2022-09-20T22:34:21.493Z,101932.75
2022-09-20T22:36:50.598Z,101933.84
2022-09-20T22:39:18.822Z,101933.31
2022-09-20T22:41:48.082Z,101937.06
2022-09-20T22:44:16.503Z,101938.06
2022-09-20T22:46:44.772Z,101936.81
2022-09-20T22:49:13.184Z,101939.66
2022-09-20T22:51:41.526Z,101940.41
2022-09-20T22:54:12.120Z,101942.63
2022-09-20T22:56:43.559Z,101936.22
2022-09-20T22:59:14.407Z,101935.09
2022-09-20T23:01:45.713Z,101942.19
2022-09-20T23:04:20.297Z,101944.38
2022-09-20T23:06:55.083Z,101947.91
2022-09-20T23:09:28.386Z,101945.69
2022-09-20T23:11:56.664Z,101945.41
2022-09-20T23:14:24.999Z,101941.13
2022-09-20T23:16:53.460Z,101939.66
2022-09-20T23:19:21.756Z,101942.28
2022-09-20T23:21:50.040Z,101949.47
2022-09-20T23:24:18.459Z,101942.41
2022-09-20T23:26:47.000Z,101946.03
2022-09-20T23:29:17.122Z,101948.41
2022-09-20T23:31:47.534Z,101943.84
2022-09-20T23:34:17.589Z,101944.28
2022-09-20T23:36:46.699Z,101948.47
2022-09-20T23:39:15.727Z,101956.66
2022-09-20T23:41:49.900Z,101951.69
2022-09-20T23:44:18.494Z,101960.88
2022-09-20T23:46:46.735Z,101965.09
2022-09-20T23:49:15.061Z,101961.94
2022-09-20T23:51:43.238Z,101951.50
2022-09-20T23:54:11.505Z,101953.53
2022-09-20T23:56:40.891Z,101966.06
2022-09-20T23:59:09.167Z,101963.47
